sensor_id;sensor_type;location;lat;lon;timestamp;P1;durP1;ratioP1;P2;durP2;ratioP2
7933;SDS011;4012;48.896;9.192;2022-10-31T00:00:05;8.37;;;5.27;;
7933;SDS011;4012;48.896;9.192;2022-10-31T00:02:33;9.90;;;5.17;;
7933;SDS011;4012;48.896;9.192;2022-10-31T00:04:58;7.93;;;5.10;;
7933;SDS011;4012;48.896;9.192;2022-10-31T00:07:24;8.57;;;5.07;;
7933;SDS011;4012;48.896;9.192;2022-10-31T00:09:49;6.67;;;4.70;;
7933;SDS011;4012;48.896;9.192;2022-10-31T00:12:15;6.10;;;4.37;;
7933;SDS011;4012;48.896;9.192;2022-10-31T00:14:41;9.33;;;5.00;;
7933;SDS011;4012;48.896;9.192;2022-10-31T00:17:06;10.43;;;5.40;;
7933;SDS011;4012;48.896;9.192;2022-10-31T00:19:32;9.23;;;5.10;;
7933;SDS011;4012;48.896;9.192;2022-10-31T00:21:57;10.17;;;5.93;;
7933;SDS011;4012;48.896;9.192;2022-10-31T00:24:23;10.20;;;5.13;;
7933;SDS011;4012;48.896;9.192;2022-10-31T00:26:48;11.83;;;5.67;;
7933;SDS011;4012;48.896;9.192;2022-10-31T00:29:14;9.30;;;4.93;;
7933;SDS011;4012;48.896;9.192;2022-10-31T00:31:40;8.73;;;5.73;;
7933;SDS011;4012;48.896;9.192;2022-10-31T00:34:05;9.07;;;5.77;;
7933;SDS011;4012;48.896;9.192;2022-10-31T00:36:31;9.70;;;5.73;;
7933;SDS011;4012;48.896;9.192;2022-10-31T00:38:57;9.33;;;5.23;;
7933;SDS011;4012;48.896;9.192;2022-10-31T00:41:23;9.57;;;5.70;;
7933;SDS011;4012;48.896;9.192;2022-10-31T00:43:49;7.63;;;5.23;;
7933;SDS011;4012;48.896;9.192;2022-10-31T00:46:14;10.27;;;5.33;;
7933;SDS011;4012;48.896;9.192;2022-10-31T00:48:40;10.50;;;5.70;;
7933;SDS011;4012;48.896;9.192;2022-10-31T00:51:06;12.03;;;5.40;;
7933;SDS011;4012;48.896;9.192;2022-10-31T00:53:32;8.50;;;5.47;;
7933;SDS011;4012;48.896;9.192;2022-10-31T00:55:57;13.23;;;5.50;;
7933;SDS011;4012;48.896;9.192;2022-10-31T00:58:23;8.37;;;4.83;;
7933;SDS011;4012;48.896;9.192;2022-10-31T01:00:49;8.37;;;4.97;;
7933;SDS011;4012;48.896;9.192;2022-10-31T01:03:19;7.20;;;4.67;;
7933;SDS011;4012;48.896;9.192;2022-10-31T01:08:44;7.87;;;4.73;;
7933;SDS011;4012;48.896;9.192;2022-10-31T01:11:18;7.37;;;4.80;;
7933;SDS011;4012;48.896;9.192;2022-10-31T01:13:47;9.17;;;4.73;;
7933;SDS011;4012;48.896;9.192;2022-10-31T01:16:16;8.13;;;4.93;;
7933;SDS011;4012;48.896;9.192;2022-10-31T01:18:43;7.83;;;5.17;;
7933;SDS011;4012;48.896;9.192;2022-10-31T01:21:10;10.20;;;5.17;;
7933;SDS011;4012;48.896;9.192;2022-10-31T01:23:36;12.37;;;5.33;;
7933;SDS011;4012;48.896;9.192;2022-10-31T01:26:03;8.80;;;4.87;;
7933;SDS011;4012;48.896;9.192;2022-10-31T01:28:30;8.67;;;5.13;;
7933;SDS011;4012;48.896;9.192;2022-10-31T01:30:59;9.10;;;4.70;;
7933;SDS011;4012;48.896;9.192;2022-10-31T01:33:26;9.87;;;5.10;;
7933;SDS011;4012;48.896;9.192;2022-10-31T01:35:52;10.87;;;5.00;;
7933;SDS011;4012;48.896;9.192;2022-10-31T01:38:17;8.27;;;4.93;;
7933;SDS011;4012;48.896;9.192;2022-10-31T01:40:43;9.83;;;5.47;;
7933;SDS011;4012;48.896;9.192;2022-10-31T01:43:12;10.73;;;5.10;;
7933;SDS011;4012;48.896;9.192;2022-10-31T01:45:39;9.50;;;5.37;;
7933;SDS011;4012;48.896;9.192;2022-10-31T01:48:09;7.97;;;5.30;;
7933;SDS011;4012;48.896;9.192;2022-10-31T01:50:40;13.53;;;5.00;;
7933;SDS011;4012;48.896;9.192;2022-10-31T01:53:07;8.70;;;5.50;;
7933;SDS011;4012;48.896;9.192;2022-10-31T01:55:38;6.63;;;4.60;;
7933;SDS011;4012;48.896;9.192;2022-10-31T01:58:09;10.10;;;4.60;;
7933;SDS011;4012;48.896;9.192;2022-10-31T02:00:39;6.57;;;4.27;;
7933;SDS011;4012;48.896;9.192;2022-10-31T02:03:07;8.07;;;4.50;;
7933;SDS011;4012;48.896;9.192;2022-10-31T02:05:32;8.73;;;4.97;;
7933;SDS011;4012;48.896;9.192;2022-10-31T02:08:32;11.20;;;4.67;;
7933;SDS011;4012;48.896;9.192;2022-10-31T02:10:50;6.20;;;4.63;;
7933;SDS011;4012;48.896;9.192;2022-10-31T02:13:16;5.20;;;3.87;;
7933;SDS011;4012;48.896;9.192;2022-10-31T02:15:44;8.17;;;4.20;;
7933;SDS011;4012;48.896;9.192;2022-10-31T02:18:14;7.70;;;4.67;;
7933;SDS011;4012;48.896;9.192;2022-10-31T02:23:51;6.37;;;4.47;;
7933;SDS011;4012;48.896;9.192;2022-10-31T02:32:14;6.17;;;4.47;;
7933;SDS011;4012;48.896;9.192;2022-10-31T02:34:52;6.57;;;4.70;;
7933;SDS011;4012;48.896;9.192;2022-10-31T02:37:46;10.00;;;4.07;;
7933;SDS011;4012;48.896;9.192;2022-10-31T02:40:35;8.23;;;5.00;;
7933;SDS011;4012;48.896;9.192;2022-10-31T02:43:36;7.50;;;4.93;;
7933;SDS011;4012;48.896;9.192;2022-10-31T02:49:26;8.57;;;4.63;;
7933;SDS011;4012;48.896;9.192;2022-10-31T02:51:57;6.77;;;4.13;;
7933;SDS011;4012;48.896;9.192;2022-10-31T02:54:24;7.23;;;4.50;;
7933;SDS011;4012;48.896;9.192;2022-10-31T02:56:53;9.50;;;4.97;;
7933;SDS011;4012;48.896;9.192;2022-10-31T02:59:24;9.00;;;5.17;;
7933;SDS011;4012;48.896;9.192;2022-10-31T03:04:32;8.53;;;5.23;;
7933;SDS011;4012;48.896;9.192;2022-10-31T03:07:09;7.70;;;4.07;;
7933;SDS011;4012;48.896;9.192;2022-10-31T03:09:59;6.03;;;4.57;;
7933;SDS011;4012;48.896;9.192;2022-10-31T03:12:39;6.77;;;4.20;;
7933;SDS011;4012;48.896;9.192;2022-10-31T03:15:18;7.70;;;4.43;;
7933;SDS011;4012;48.896;9.192;2022-10-31T03:20:41;8.03;;;4.40;;
7933;SDS011;4012;48.896;9.192;2022-10-31T03:23:13;4.73;;;3.37;;
7933;SDS011;4012;48.896;9.192;2022-10-31T03:25:43;7.33;;;4.20;;
7933;SDS011;4012;48.896;9.192;2022-10-31T03:28:11;9.60;;;4.57;;
7933;SDS011;4012;48.896;9.192;2022-10-31T03:30:39;8.13;;;4.30;;
7933;SDS011;4012;48.896;9.192;2022-10-31T03:33:09;6.97;;;4.20;;
7933;SDS011;4012;48.896;9.192;2022-10-31T03:35:39;9.27;;;4.60;;
7933;SDS011;4012;48.896;9.192;2022-10-31T03:38:07;9.90;;;4.80;;
7933;SDS011;4012;48.896;9.192;2022-10-31T03:40:34;6.90;;;4.83;;
7933;SDS011;4012;48.896;9.192;2022-10-31T03:43:06;7.40;;;4.27;;
7933;SDS011;4012;48.896;9.192;2022-10-31T03:45:36;5.90;;;4.47;;
7933;SDS011;4012;48.896;9.192;2022-10-31T03:48:07;7.73;;;4.53;;
7933;SDS011;4012;48.896;9.192;2022-10-31T03:50:37;8.70;;;4.10;;
7933;SDS011;4012;48.896;9.192;2022-10-31T03:56:36;6.23;;;4.17;;
7933;SDS011;4012;48.896;9.192;2022-10-31T04:01:48;8.03;;;5.10;;
7933;SDS011;4012;48.896;9.192;2022-10-31T04:04:18;8.07;;;5.03;;
7933;SDS011;4012;48.896;9.192;2022-10-31T04:06:44;8.10;;;4.90;;
7933;SDS011;4012;48.896;9.192;2022-10-31T04:09:12;8.43;;;5.00;;
7933;SDS011;4012;48.896;9.192;2022-10-31T04:11:44;6.07;;;4.53;;
7933;SDS011;4012;48.896;9.192;2022-10-31T04:14:13;5.50;;;4.30;;
7933;SDS011;4012;48.896;9.192;2022-10-31T04:16:40;6.23;;;4.70;;
7933;SDS011;4012;48.896;9.192;2022-10-31T04:19:07;8.10;;;4.00;;
7933;SDS011;4012;48.896;9.192;2022-10-31T04:21:33;6.60;;;4.33;;
7933;SDS011;4012;48.896;9.192;2022-10-31T04:23:59;10.00;;;5.00;;
7933;SDS011;4012;48.896;9.192;2022-10-31T04:26:24;7.60;;;4.43;;
7933;SDS011;4012;48.896;9.192;2022-10-31T04:28:50;10.87;;;4.53;;
7933;SDS011;4012;48.896;9.192;2022-10-31T04:31:15;7.30;;;4.33;;
7933;SDS011;4012;48.896;9.192;2022-10-31T04:33:41;11.30;;;4.97;;
7933;SDS011;4012;48.896;9.192;2022-10-31T04:36:07;8.67;;;4.37;;
7933;SDS011;4012;48.896;9.192;2022-10-31T04:38:33;7.17;;;4.27;;
7933;SDS011;4012;48.896;9.192;2022-10-31T04:40:59;5.90;;;4.53;;
7933;SDS011;4012;48.896;9.192;2022-10-31T04:43:24;8.40;;;4.33;;
7933;SDS011;4012;48.896;9.192;2022-10-31T04:45:50;9.10;;;4.20;;
7933;SDS011;4012;48.896;9.192;2022-10-31T04:48:16;6.67;;;4.03;;
7933;SDS011;4012;48.896;9.192;2022-10-31T04:50:41;10.53;;;5.17;;
7933;SDS011;4012;48.896;9.192;2022-10-31T04:53:07;7.03;;;4.50;;
7933;SDS011;4012;48.896;9.192;2022-10-31T04:55:33;8.93;;;4.23;;
7933;SDS011;4012;48.896;9.192;2022-10-31T04:57:59;10.03;;;4.43;;
7933;SDS011;4012;48.896;9.192;2022-10-31T05:00:25;9.00;;;4.83;;
7933;SDS011;4012;48.896;9.192;2022-10-31T05:02:52;7.33;;;3.90;;
7933;SDS011;4012;48.896;9.192;2022-10-31T05:05:20;9.03;;;3.57;;
7933;SDS011;4012;48.896;9.192;2022-10-31T05:07:47;13.40;;;4.47;;
7933;SDS011;4012;48.896;9.192;2022-10-31T05:10:15;8.70;;;4.13;;
7933;SDS011;4012;48.896;9.192;2022-10-31T05:12:46;5.50;;;4.20;;
7933;SDS011;4012;48.896;9.192;2022-10-31T05:15:23;9.30;;;4.43;;
7933;SDS011;4012;48.896;9.192;2022-10-31T05:17:50;9.80;;;4.13;;
7933;SDS011;4012;48.896;9.192;2022-10-31T05:20:17;6.43;;;4.10;;
7933;SDS011;4012;48.896;9.192;2022-10-31T05:22:45;9.97;;;3.97;;
7933;SDS011;4012;48.896;9.192;2022-10-31T05:25:11;9.03;;;4.27;;
7933;SDS011;4012;48.896;9.192;2022-10-31T05:27:41;8.77;;;4.70;;
7933;SDS011;4012;48.896;9.192;2022-10-31T05:30:08;13.20;;;4.87;;
7933;SDS011;4012;48.896;9.192;2022-10-31T05:32:42;9.57;;;4.20;;
7933;SDS011;4012;48.896;9.192;2022-10-31T05:35:10;6.60;;;4.80;;
7933;SDS011;4012;48.896;9.192;2022-10-31T05:37:37;9.30;;;4.40;;
7933;SDS011;4012;48.896;9.192;2022-10-31T05:40:04;9.13;;;4.87;;
7933;SDS011;4012;48.896;9.192;2022-10-31T05:42:32;8.97;;;4.53;;
7933;SDS011;4012;48.896;9.192;2022-10-31T05:44:58;7.77;;;4.03;;
7933;SDS011;4012;48.896;9.192;2022-10-31T05:47:23;9.40;;;4.50;;
7933;SDS011;4012;48.896;9.192;2022-10-31T05:49:49;8.37;;;4.03;;
7933;SDS011;4012;48.896;9.192;2022-10-31T05:52:15;10.77;;;4.50;;
7933;SDS011;4012;48.896;9.192;2022-10-31T05:54:41;9.00;;;4.50;;
7933;SDS011;4012;48.896;9.192;2022-10-31T05:57:06;7.77;;;4.70;;
7933;SDS011;4012;48.896;9.192;2022-10-31T05:59:32;7.73;;;4.60;;
7933;SDS011;4012;48.896;9.192;2022-10-31T06:01:58;7.57;;;4.37;;
7933;SDS011;4012;48.896;9.192;2022-10-31T06:04:23;4.83;;;3.80;;
7933;SDS011;4012;48.896;9.192;2022-10-31T06:06:49;5.70;;;4.30;;
7933;SDS011;4012;48.896;9.192;2022-10-31T06:09:14;7.40;;;3.83;;
7933;SDS011;4012;48.896;9.192;2022-10-31T06:11:40;8.03;;;4.10;;
7933;SDS011;4012;48.896;9.192;2022-10-31T06:14:06;8.20;;;4.30;;
7933;SDS011;4012;48.896;9.192;2022-10-31T06:16:31;4.90;;;3.23;;
7933;SDS011;4012;48.896;9.192;2022-10-31T06:18:57;6.70;;;4.23;;
7933;SDS011;4012;48.896;9.192;2022-10-31T06:21:22;7.27;;;3.93;;
7933;SDS011;4012;48.896;9.192;2022-10-31T06:23:48;11.17;;;4.47;;
7933;SDS011;4012;48.896;9.192;2022-10-31T06:26:14;9.40;;;4.40;;
7933;SDS011;4012;48.896;9.192;2022-10-31T06:28:39;7.13;;;3.90;;
7933;SDS011;4012;48.896;9.192;2022-10-31T06:31:05;5.17;;;3.70;;
7933;SDS011;4012;48.896;9.192;2022-10-31T06:33:31;10.10;;;4.30;;
7933;SDS011;4012;48.896;9.192;2022-10-31T06:35:56;8.13;;;4.17;;
7933;SDS011;4012;48.896;9.192;2022-10-31T06:38:22;5.43;;;3.60;;
7933;SDS011;4012;48.896;9.192;2022-10-31T06:40:47;7.70;;;4.27;;
7933;SDS011;4012;48.896;9.192;2022-10-31T06:43:13;6.00;;;3.77;;
7933;SDS011;4012;48.896;9.192;2022-10-31T06:45:39;5.63;;;4.03;;
7933;SDS011;4012;48.896;9.192;2022-10-31T06:48:05;10.17;;;4.00;;
7933;SDS011;4012;48.896;9.192;2022-10-31T06:50:31;9.97;;;4.00;;
7933;SDS011;4012;48.896;9.192;2022-10-31T06:52:57;6.27;;;3.20;;
7933;SDS011;4012;48.896;9.192;2022-10-31T06:55:25;5.93;;;3.73;;
7933;SDS011;4012;48.896;9.192;2022-10-31T07:00:17;7.57;;;4.23;;
7933;SDS011;4012;48.896;9.192;2022-10-31T07:02:43;4.43;;;3.30;;
7933;SDS011;4012;48.896;9.192;2022-10-31T07:05:18;9.23;;;4.00;;
7933;SDS011;4012;48.896;9.192;2022-10-31T07:07:43;9.83;;;3.83;;
7933;SDS011;4012;48.896;9.192;2022-10-31T07:10:09;6.90;;;3.53;;
7933;SDS011;4012;48.896;9.192;2022-10-31T07:12:34;7.83;;;3.60;;
7933;SDS011;4012;48.896;9.192;2022-10-31T07:15:00;6.47;;;3.73;;
7933;SDS011;4012;48.896;9.192;2022-10-31T07:17:25;10.77;;;4.23;;
7933;SDS011;4012;48.896;9.192;2022-10-31T07:19:51;6.47;;;3.87;;
7933;SDS011;4012;48.896;9.192;2022-10-31T07:22:17;5.80;;;3.47;;
7933;SDS011;4012;48.896;9.192;2022-10-31T07:24:42;6.83;;;3.63;;
7933;SDS011;4012;48.896;9.192;2022-10-31T07:27:08;6.67;;;4.10;;
7933;SDS011;4012;48.896;9.192;2022-10-31T07:29:33;6.40;;;3.60;;
7933;SDS011;4012;48.896;9.192;2022-10-31T07:31:59;6.27;;;4.10;;
7933;SDS011;4012;48.896;9.192;2022-10-31T07:34:25;7.07;;;3.60;;
7933;SDS011;4012;48.896;9.192;2022-10-31T07:36:50;6.37;;;3.83;;
7933;SDS011;4012;48.896;9.192;2022-10-31T07:39:16;7.77;;;4.10;;
7933;SDS011;4012;48.896;9.192;2022-10-31T07:41:42;6.73;;;4.03;;
7933;SDS011;4012;48.896;9.192;2022-10-31T07:44:08;6.70;;;4.27;;
7933;SDS011;4012;48.896;9.192;2022-10-31T07:46:33;7.27;;;4.00;;
7933;SDS011;4012;48.896;9.192;2022-10-31T07:48:59;9.03;;;4.70;;
7933;SDS011;4012;48.896;9.192;2022-10-31T07:51:24;9.23;;;3.67;;
7933;SDS011;4012;48.896;9.192;2022-10-31T07:53:51;6.33;;;4.00;;
7933;SDS011;4012;48.896;9.192;2022-10-31T07:56:17;3.87;;;3.03;;
7933;SDS011;4012;48.896;9.192;2022-10-31T07:58:42;5.23;;;3.50;;
7933;SDS011;4012;48.896;9.192;2022-10-31T08:01:08;8.40;;;4.53;;
7933;SDS011;4012;48.896;9.192;2022-10-31T08:03:33;5.63;;;3.60;;
7933;SDS011;4012;48.896;9.192;2022-10-31T08:05:59;6.60;;;3.70;;
7933;SDS011;4012;48.896;9.192;2022-10-31T08:08:24;12.77;;;4.60;;
7933;SDS011;4012;48.896;9.192;2022-10-31T08:10:52;8.20;;;3.90;;
7933;SDS011;4012;48.896;9.192;2022-10-31T08:13:18;5.80;;;4.00;;
7933;SDS011;4012;48.896;9.192;2022-10-31T08:15:44;7.20;;;3.63;;
7933;SDS011;4012;48.896;9.192;2022-10-31T08:18:15;8.33;;;3.73;;
7933;SDS011;4012;48.896;9.192;2022-10-31T08:20:41;5.70;;;3.63;;
7933;SDS011;4012;48.896;9.192;2022-10-31T08:23:08;6.43;;;3.50;;
7933;SDS011;4012;48.896;9.192;2022-10-31T08:25:34;5.67;;;3.50;;
7933;SDS011;4012;48.896;9.192;2022-10-31T08:28:00;6.17;;;3.23;;
7933;SDS011;4012;48.896;9.192;2022-10-31T08:37:03;7.57;;;3.40;;
7933;SDS011;4012;48.896;9.192;2022-10-31T08:39:28;8.13;;;4.70;;
7933;SDS011;4012;48.896;9.192;2022-10-31T08:41:54;4.87;;;3.53;;
7933;SDS011;4012;48.896;9.192;2022-10-31T08:44:20;8.20;;;3.23;;
7933;SDS011;4012;48.896;9.192;2022-10-31T08:46:46;8.60;;;3.53;;
7933;SDS011;4012;48.896;9.192;2022-10-31T08:49:12;7.60;;;3.80;;
7933;SDS011;4012;48.896;9.192;2022-10-31T08:51:37;5.13;;;3.67;;
7933;SDS011;4012;48.896;9.192;2022-10-31T08:54:03;8.63;;;4.57;;
7933;SDS011;4012;48.896;9.192;2022-10-31T08:56:29;8.60;;;4.47;;
7933;SDS011;4012;48.896;9.192;2022-10-31T08:58:54;6.03;;;3.70;;
7933;SDS011;4012;48.896;9.192;2022-10-31T09:01:20;6.20;;;3.40;;
7933;SDS011;4012;48.896;9.192;2022-10-31T09:03:45;5.70;;;3.50;;
7933;SDS011;4012;48.896;9.192;2022-10-31T09:06:11;7.87;;;3.60;;
7933;SDS011;4012;48.896;9.192;2022-10-31T09:08:37;4.67;;;3.10;;
7933;SDS011;4012;48.896;9.192;2022-10-31T09:11:03;7.50;;;3.70;;
7933;SDS011;4012;48.896;9.192;2022-10-31T09:13:29;6.80;;;3.70;;
7933;SDS011;4012;48.896;9.192;2022-10-31T09:15:56;6.67;;;3.70;;
7933;SDS011;4012;48.896;9.192;2022-10-31T09:18:23;6.43;;;3.30;;
7933;SDS011;4012;48.896;9.192;2022-10-31T09:20:50;5.43;;;3.70;;
7933;SDS011;4012;48.896;9.192;2022-10-31T09:23:16;6.00;;;2.90;;
7933;SDS011;4012;48.896;9.192;2022-10-31T09:25:47;5.43;;;3.10;;
7933;SDS011;4012;48.896;9.192;2022-10-31T09:28:15;5.63;;;3.23;;
7933;SDS011;4012;48.896;9.192;2022-10-31T09:30:45;7.17;;;3.27;;
7933;SDS011;4012;48.896;9.192;2022-10-31T09:33:12;3.50;;;3.07;;
7933;SDS011;4012;48.896;9.192;2022-10-31T09:35:38;4.40;;;3.30;;
7933;SDS011;4012;48.896;9.192;2022-10-31T09:38:05;4.80;;;3.30;;
7933;SDS011;4012;48.896;9.192;2022-10-31T09:40:42;4.70;;;3.50;;
7933;SDS011;4012;48.896;9.192;2022-10-31T09:50:55;4.07;;;3.33;;
7933;SDS011;4012;48.896;9.192;2022-10-31T09:53:47;5.60;;;3.33;;
7933;SDS011;4012;48.896;9.192;2022-10-31T09:56:14;5.00;;;3.03;;
7933;SDS011;4012;48.896;9.192;2022-10-31T09:58:43;4.40;;;3.13;;
7933;SDS011;4012;48.896;9.192;2022-10-31T10:01:45;5.07;;;3.60;;
7933;SDS011;4012;48.896;9.192;2022-10-31T10:06:54;7.97;;;3.67;;
7933;SDS011;4012;48.896;9.192;2022-10-31T10:09:21;6.17;;;3.27;;
7933;SDS011;4012;48.896;9.192;2022-10-31T10:14:49;6.13;;;3.67;;
7933;SDS011;4012;48.896;9.192;2022-10-31T10:30:18;5.73;;;3.63;;
7933;SDS011;4012;48.896;9.192;2022-10-31T10:32:53;6.70;;;3.70;;
7933;SDS011;4012;48.896;9.192;2022-10-31T10:35:26;6.10;;;3.17;;
7933;SDS011;4012;48.896;9.192;2022-10-31T10:40:56;5.23;;;3.33;;
7933;SDS011;4012;48.896;9.192;2022-10-31T10:43:37;7.07;;;3.80;;
7933;SDS011;4012;48.896;9.192;2022-10-31T10:49:24;6.73;;;2.97;;
7933;SDS011;4012;48.896;9.192;2022-10-31T10:57:23;6.03;;;3.63;;
7933;SDS011;4012;48.896;9.192;2022-10-31T11:00:23;4.77;;;3.77;;
7933;SDS011;4012;48.896;9.192;2022-10-31T11:02:49;5.37;;;3.13;;
7933;SDS011;4012;48.896;9.192;2022-10-31T11:08:07;4.93;;;3.23;;
7933;SDS011;4012;48.896;9.192;2022-10-31T11:10:33;7.03;;;3.53;;
7933;SDS011;4012;48.896;9.192;2022-10-31T11:15:48;6.97;;;3.57;;
7933;SDS011;4012;48.896;9.192;2022-10-31T11:18:23;6.03;;;3.70;;
7933;SDS011;4012;48.896;9.192;2022-10-31T11:20:56;5.40;;;3.87;;
7933;SDS011;4012;48.896;9.192;2022-10-31T11:23:24;7.67;;;3.70;;
7933;SDS011;4012;48.896;9.192;2022-10-31T11:25:52;6.70;;;3.47;;
7933;SDS011;4012;48.896;9.192;2022-10-31T11:28:25;5.73;;;3.80;;
7933;SDS011;4012;48.896;9.192;2022-10-31T11:30:55;5.03;;;3.37;;
7933;SDS011;4012;48.896;9.192;2022-10-31T11:35:52;4.40;;;3.03;;
7933;SDS011;4012;48.896;9.192;2022-10-31T11:38:19;8.10;;;4.17;;
7933;SDS011;4012;48.896;9.192;2022-10-31T11:40:51;6.60;;;3.53;;
7933;SDS011;4012;48.896;9.192;2022-10-31T11:43:19;7.63;;;3.67;;
7933;SDS011;4012;48.896;9.192;2022-10-31T11:45:44;5.60;;;3.37;;
7933;SDS011;4012;48.896;9.192;2022-10-31T11:48:20;6.43;;;3.83;;
7933;SDS011;4012;48.896;9.192;2022-10-31T11:50:57;10.57;;;3.83;;
7933;SDS011;4012;48.896;9.192;2022-10-31T11:53:27;8.10;;;4.00;;
7933;SDS011;4012;48.896;9.192;2022-10-31T11:56:12;5.97;;;3.20;;
7933;SDS011;4012;48.896;9.192;2022-10-31T11:58:40;6.63;;;4.13;;
7933;SDS011;4012;48.896;9.192;2022-10-31T12:01:08;11.47;;;5.57;;
7933;SDS011;4012;48.896;9.192;2022-10-31T12:06:38;6.00;;;4.50;;
7933;SDS011;4012;48.896;9.192;2022-10-31T12:12:00;5.97;;;4.10;;
7933;SDS011;4012;48.896;9.192;2022-10-31T12:34:26;8.37;;;4.30;;
7933;SDS011;4012;48.896;9.192;2022-10-31T12:45:12;10.03;;;3.83;;
7933;SDS011;4012;48.896;9.192;2022-10-31T12:56:16;5.20;;;3.53;;
7933;SDS011;4012;48.896;9.192;2022-10-31T13:01:35;9.17;;;4.10;;
7933;SDS011;4012;48.896;9.192;2022-10-31T13:04:38;8.20;;;3.93;;
7933;SDS011;4012;48.896;9.192;2022-10-31T13:07:14;9.07;;;4.03;;
7933;SDS011;4012;48.896;9.192;2022-10-31T13:10:48;6.80;;;4.40;;
7933;SDS011;4012;48.896;9.192;2022-10-31T13:16:13;9.40;;;4.67;;
7933;SDS011;4012;48.896;9.192;2022-10-31T13:18:55;8.60;;;5.53;;
7933;SDS011;4012;48.896;9.192;2022-10-31T13:21:36;6.17;;;4.93;;
7933;SDS011;4012;48.896;9.192;2022-10-31T13:24:23;7.57;;;4.57;;
7933;SDS011;4012;48.896;9.192;2022-10-31T13:26:57;7.13;;;5.00;;
7933;SDS011;4012;48.896;9.192;2022-10-31T13:29:35;9.63;;;5.20;;
7933;SDS011;4012;48.896;9.192;2022-10-31T13:32:15;7.97;;;4.80;;
7933;SDS011;4012;48.896;9.192;2022-10-31T13:34:51;7.30;;;4.50;;
7933;SDS011;4012;48.896;9.192;2022-10-31T13:37:36;6.90;;;5.03;;
7933;SDS011;4012;48.896;9.192;2022-10-31T13:40:22;6.33;;;4.40;;
7933;SDS011;4012;48.896;9.192;2022-10-31T13:42:55;7.17;;;4.80;;
7933;SDS011;4012;48.896;9.192;2022-10-31T13:45:30;5.80;;;4.80;;
7933;SDS011;4012;48.896;9.192;2022-10-31T13:48:00;6.63;;;4.70;;
7933;SDS011;4012;48.896;9.192;2022-10-31T13:50:43;8.10;;;4.40;;
7933;SDS011;4012;48.896;9.192;2022-10-31T13:53:22;10.43;;;5.13;;
7933;SDS011;4012;48.896;9.192;2022-10-31T13:56:04;7.50;;;4.70;;
7933;SDS011;4012;48.896;9.192;2022-10-31T13:58:54;8.17;;;3.70;;
7933;SDS011;4012;48.896;9.192;2022-10-31T14:01:30;7.00;;;3.57;;
7933;SDS011;4012;48.896;9.192;2022-10-31T14:06:40;5.63;;;3.10;;
7933;SDS011;4012;48.896;9.192;2022-10-31T14:09:19;5.50;;;3.17;;
7933;SDS011;4012;48.896;9.192;2022-10-31T14:11:46;4.50;;;3.00;;
7933;SDS011;4012;48.896;9.192;2022-10-31T14:14:13;3.67;;;2.67;;
7933;SDS011;4012;48.896;9.192;2022-10-31T14:16:39;9.37;;;3.50;;
7933;SDS011;4012;48.896;9.192;2022-10-31T14:19:18;5.23;;;3.20;;
7933;SDS011;4012;48.896;9.192;2022-10-31T14:21:46;4.20;;;3.43;;
7933;SDS011;4012;48.896;9.192;2022-10-31T14:24:13;6.27;;;3.57;;
7933;SDS011;4012;48.896;9.192;2022-10-31T14:26:51;6.10;;;3.40;;
7933;SDS011;4012;48.896;9.192;2022-10-31T14:29:22;7.77;;;3.87;;
7933;SDS011;4012;48.896;9.192;2022-10-31T14:37:35;9.00;;;5.47;;
7933;SDS011;4012;48.896;9.192;2022-10-31T14:48:34;10.43;;;5.10;;
7933;SDS011;4012;48.896;9.192;2022-10-31T14:51:34;14.17;;;6.73;;
7933;SDS011;4012;48.896;9.192;2022-10-31T14:54:04;8.87;;;4.77;;
7933;SDS011;4012;48.896;9.192;2022-10-31T14:56:33;15.10;;;7.53;;
7933;SDS011;4012;48.896;9.192;2022-10-31T14:59:03;25.07;;;13.87;;
7933;SDS011;4012;48.896;9.192;2022-10-31T15:01:34;23.00;;;12.90;;
7933;SDS011;4012;48.896;9.192;2022-10-31T15:04:13;26.40;;;14.10;;
7933;SDS011;4012;48.896;9.192;2022-10-31T15:06:46;22.57;;;13.27;;
7933;SDS011;4012;48.896;9.192;2022-10-31T15:09:24;26.10;;;12.77;;
7933;SDS011;4012;48.896;9.192;2022-10-31T15:12:05;19.47;;;11.27;;
7933;SDS011;4012;48.896;9.192;2022-10-31T15:14:52;23.33;;;13.13;;
7933;SDS011;4012;48.896;9.192;2022-10-31T15:17:18;20.93;;;12.47;;
7933;SDS011;4012;48.896;9.192;2022-10-31T15:19:45;24.60;;;13.17;;
7933;SDS011;4012;48.896;9.192;2022-10-31T15:22:14;23.53;;;12.60;;
7933;SDS011;4012;48.896;9.192;2022-10-31T15:24:42;22.10;;;11.73;;
7933;SDS011;4012;48.896;9.192;2022-10-31T15:27:26;24.00;;;12.53;;
7933;SDS011;4012;48.896;9.192;2022-10-31T15:29:54;20.97;;;11.63;;
7933;SDS011;4012;48.896;9.192;2022-10-31T15:32:22;22.13;;;12.90;;
7933;SDS011;4012;48.896;9.192;2022-10-31T15:34:50;40.23;;;20.60;;
7933;SDS011;4012;48.896;9.192;2022-10-31T15:37:18;32.47;;;18.67;;
7933;SDS011;4012;48.896;9.192;2022-10-31T15:39:46;28.83;;;15.63;;
7933;SDS011;4012;48.896;9.192;2022-10-31T15:45:01;20.13;;;11.37;;
7933;SDS011;4012;48.896;9.192;2022-10-31T15:47:36;19.73;;;12.13;;
7933;SDS011;4012;48.896;9.192;2022-10-31T15:50:03;20.33;;;11.30;;
7933;SDS011;4012;48.896;9.192;2022-10-31T15:52:47;20.17;;;12.53;;
7933;SDS011;4012;48.896;9.192;2022-10-31T15:57:45;18.60;;;11.57;;
7933;SDS011;4012;48.896;9.192;2022-10-31T16:05:44;17.47;;;10.07;;
7933;SDS011;4012;48.896;9.192;2022-10-31T16:10:58;19.57;;;10.70;;
7933;SDS011;4012;48.896;9.192;2022-10-31T16:13:32;24.07;;;10.87;;
7933;SDS011;4012;48.896;9.192;2022-10-31T16:16:01;14.07;;;8.83;;
7933;SDS011;4012;48.896;9.192;2022-10-31T16:18:29;17.50;;;10.27;;
7933;SDS011;4012;48.896;9.192;2022-10-31T16:21:01;13.97;;;9.00;;
7933;SDS011;4012;48.896;9.192;2022-10-31T16:23:27;19.33;;;9.67;;
7933;SDS011;4012;48.896;9.192;2022-10-31T16:25:53;19.03;;;11.03;;
7933;SDS011;4012;48.896;9.192;2022-10-31T16:28:23;17.63;;;10.10;;
7933;SDS011;4012;48.896;9.192;2022-10-31T16:30:51;15.93;;;9.63;;
7933;SDS011;4012;48.896;9.192;2022-10-31T16:35:49;16.30;;;11.03;;
7933;SDS011;4012;48.896;9.192;2022-10-31T16:38:15;16.47;;;9.70;;
7933;SDS011;4012;48.896;9.192;2022-10-31T16:40:41;17.00;;;9.47;;
7933;SDS011;4012;48.896;9.192;2022-10-31T16:43:11;15.30;;;8.97;;
7933;SDS011;4012;48.896;9.192;2022-10-31T16:45:41;14.27;;;9.13;;
7933;SDS011;4012;48.896;9.192;2022-10-31T16:48:18;14.13;;;9.30;;
7933;SDS011;4012;48.896;9.192;2022-10-31T16:50:46;20.27;;;8.63;;
7933;SDS011;4012;48.896;9.192;2022-10-31T16:53:13;15.13;;;7.53;;
7933;SDS011;4012;48.896;9.192;2022-10-31T16:56:02;9.67;;;6.03;;
7933;SDS011;4012;48.896;9.192;2022-10-31T16:58:27;12.47;;;6.93;;
7933;SDS011;4012;48.896;9.192;2022-10-31T17:00:55;10.70;;;6.67;;
7933;SDS011;4012;48.896;9.192;2022-10-31T17:03:21;13.87;;;7.50;;
7933;SDS011;4012;48.896;9.192;2022-10-31T17:05:47;12.43;;;7.23;;
7933;SDS011;4012;48.896;9.192;2022-10-31T17:08:13;10.80;;;6.37;;
7933;SDS011;4012;48.896;9.192;2022-10-31T17:10:39;11.93;;;5.37;;
7933;SDS011;4012;48.896;9.192;2022-10-31T17:13:08;11.17;;;5.97;;
7933;SDS011;4012;48.896;9.192;2022-10-31T17:15:41;9.93;;;5.27;;
7933;SDS011;4012;48.896;9.192;2022-10-31T17:18:13;9.20;;;5.60;;
7933;SDS011;4012;48.896;9.192;2022-10-31T17:20:40;11.47;;;6.33;;
7933;SDS011;4012;48.896;9.192;2022-10-31T17:23:08;10.30;;;5.67;;
7933;SDS011;4012;48.896;9.192;2022-10-31T17:25:35;10.40;;;6.00;;
7933;SDS011;4012;48.896;9.192;2022-10-31T17:28:01;11.70;;;6.30;;
7933;SDS011;4012;48.896;9.192;2022-10-31T17:30:27;12.17;;;7.10;;
7933;SDS011;4012;48.896;9.192;2022-10-31T17:32:52;9.40;;;6.70;;
7933;SDS011;4012;48.896;9.192;2022-10-31T17:35:19;10.53;;;7.43;;
7933;SDS011;4012;48.896;9.192;2022-10-31T17:37:45;11.40;;;7.10;;
7933;SDS011;4012;48.896;9.192;2022-10-31T17:40:12;10.23;;;6.83;;
7933;SDS011;4012;48.896;9.192;2022-10-31T17:42:39;8.90;;;6.30;;
7933;SDS011;4012;48.896;9.192;2022-10-31T17:45:05;14.63;;;7.53;;
7933;SDS011;4012;48.896;9.192;2022-10-31T17:47:31;10.13;;;6.33;;
7933;SDS011;4012;48.896;9.192;2022-10-31T17:49:57;8.83;;;6.87;;
7933;SDS011;4012;48.896;9.192;2022-10-31T17:52:24;14.77;;;7.63;;
7933;SDS011;4012;48.896;9.192;2022-10-31T17:54:49;10.87;;;7.17;;
7933;SDS011;4012;48.896;9.192;2022-10-31T17:57:15;10.40;;;7.00;;
7933;SDS011;4012;48.896;9.192;2022-10-31T17:59:42;13.40;;;7.53;;
7933;SDS011;4012;48.896;9.192;2022-10-31T18:02:08;10.23;;;7.60;;
7933;SDS011;4012;48.896;9.192;2022-10-31T18:04:34;10.47;;;7.30;;
7933;SDS011;4012;48.896;9.192;2022-10-31T18:07:00;13.00;;;7.00;;